createdAt,value
2016-11-17T00:00:23.338Z,7.95
2016-11-17T00:01:31.984Z,8
2016-11-17T00:02:40.622Z,8.1
2016-11-17T00:03:49.265Z,8.12
2016-11-17T00:04:57.871Z,8.18
2016-11-17T00:06:06.495Z,8.15
2016-11-17T00:07:15.133Z,8.22
2016-11-17T00:08:23.781Z,8.23
2016-11-17T00:09:32.424Z,8.22
2016-11-17T00:10:41.041Z,8.23
2016-11-17T00:11:49.692Z,8.26
2016-11-17T00:12:58.345Z,8.28
2016-11-17T00:14:06.986Z,8.29
2016-11-17T00:15:15.604Z,8.25
2016-11-17T00:16:24.205Z,8.28
2016-11-17T00:17:32.830Z,8.41
2016-11-17T00:18:41.446Z,8.43
2016-11-17T00:19:50.095Z,8.37
2016-11-17T00:20:58.760Z,8.43
2016-11-17T00:22:07.361Z,8.48
2016-11-17T00:23:16.010Z,8.43
2016-11-17T00:24:24.649Z,8.47
2016-11-17T00:25:33.290Z,8.44
2016-11-17T00:26:41.900Z,8.37
2016-11-17T00:27:50.837Z,8.34
2016-11-17T00:28:59.462Z,8.52
2016-11-17T00:30:08.087Z,8.4
2016-11-17T00:31:16.732Z,8.26
2016-11-17T00:32:25.352Z,8.25
2016-11-17T00:33:34.001Z,8.3
2016-11-17T00:34:42.668Z,8.3
2016-11-17T00:35:51.318Z,8.36
2016-11-17T00:36:59.963Z,8.38
2016-11-17T00:38:08.597Z,8.41
2016-11-17T00:39:17.229Z,8.36
2016-11-17T00:40:25.839Z,8.44
2016-11-17T00:41:34.480Z,8.43
2016-11-17T00:42:43.414Z,8.41
2016-11-17T00:43:52.312Z,8.43
2016-11-17T00:45:00.924Z,8.44
2016-11-17T00:46:09.549Z,8.45
2016-11-17T00:47:18.179Z,8.52
2016-11-17T00:48:26.813Z,8.43
2016-11-17T00:49:35.420Z,8.45
2016-11-17T00:50:44.334Z,8.47
2016-11-17T00:51:52.966Z,8.56
2016-11-17T00:53:01.626Z,8.53
2016-11-17T00:54:10.242Z,8.53
2016-11-17T00:55:18.896Z,8.52
2016-11-17T00:56:27.543Z,8.5
2016-11-17T00:57:36.168Z,8.5
2016-11-17T00:58:44.812Z,8.48
2016-11-17T00:59:53.734Z,8.53
2016-11-17T01:01:02.356Z,8.5
2016-11-17T01:02:10.994Z,8.5
2016-11-17T01:03:19.623Z,8.53
2016-11-17T01:04:28.262Z,8.59
2016-11-17T01:05:36.928Z,8.56
2016-11-17T01:06:45.534Z,8.61
2016-11-17T01:07:54.185Z,8.62
2016-11-17T01:09:02.817Z,8.59
2016-11-17T01:10:11.442Z,8.65
2016-11-17T01:11:20.070Z,8.65
2016-11-17T01:12:28.706Z,8.53
2016-11-17T01:13:37.338Z,8.71
2016-11-17T01:14:45.972Z,8.74
2016-11-17T01:15:54.595Z,8.79
2016-11-17T01:17:03.256Z,8.77
2016-11-17T01:18:12.190Z,8.81
2016-11-17T01:19:20.876Z,8.87
2016-11-17T01:20:29.539Z,8.89
2016-11-17T01:21:38.178Z,8.91
2016-11-17T01:22:46.800Z,8.89
2016-11-17T01:23:55.446Z,8.89
2016-11-17T01:25:04.075Z,8.89
2016-11-17T01:26:12.700Z,8.98
2016-11-17T01:27:21.317Z,9.01
2016-11-17T01:28:29.950Z,8.95
2016-11-17T01:29:38.576Z,9.04
2016-11-17T01:30:47.200Z,8.95
2016-11-17T01:31:55.821Z,9.02
2016-11-17T01:33:04.443Z,9.08
2016-11-17T01:34:13.063Z,9.05
2016-11-17T01:35:21.684Z,9.1
2016-11-17T01:36:30.286Z,9.08
2016-11-17T01:37:38.931Z,9.1
2016-11-17T01:38:47.570Z,9.02
2016-11-17T01:39:56.211Z,9.2
2016-11-17T01:41:04.845Z,9.17
2016-11-17T01:42:13.479Z,9.11
2016-11-17T01:43:22.104Z,9.05
2016-11-17T01:44:30.721Z,9.11
2016-11-17T01:45:39.375Z,9.14
2016-11-17T01:46:48.013Z,9.2
2016-11-17T01:47:56.618Z,9.21
2016-11-17T01:49:05.247Z,9.24
2016-11-17T01:50:13.887Z,9.2
2016-11-17T01:51:22.521Z,9.21
2016-11-17T01:52:31.149Z,9.2
2016-11-17T01:53:39.774Z,9.21
2016-11-17T01:54:48.398Z,9.24
2016-11-17T01:55:57.041Z,9.17
2016-11-17T01:57:05.712Z,9.17
2016-11-17T01:58:14.333Z,9.2
2016-11-17T01:59:22.963Z,9.2
2016-11-17T02:00:31.602Z,9.2
2016-11-17T02:01:40.513Z,9.2
2016-11-17T02:02:49.163Z,9.15
2016-11-17T02:03:57.806Z,9.14
2016-11-17T02:05:06.438Z,9.17
2016-11-17T02:06:15.055Z,9.14
2016-11-17T02:07:23.706Z,9.17
2016-11-17T02:08:32.339Z,9.15
2016-11-17T02:09:40.960Z,9.14
2016-11-17T02:10:49.594Z,9.2
2016-11-17T02:11:58.240Z,9.14
2016-11-17T02:13:06.878Z,9.18
2016-11-17T02:14:15.523Z,9.18
2016-11-17T02:15:24.169Z,9.11
2016-11-17T02:16:32.815Z,9.05
2016-11-17T02:17:41.473Z,9.02
2016-11-17T02:18:50.135Z,8.99
2016-11-17T02:19:58.752Z,9.18
2016-11-17T02:21:07.394Z,9.15
2016-11-17T02:22:16.029Z,9.17
2016-11-17T02:23:24.671Z,8.99
2016-11-17T02:24:33.340Z,9.11
2016-11-17T02:25:41.983Z,9.2
2016-11-17T02:26:50.624Z,9.14
2016-11-17T02:27:59.244Z,9.08
2016-11-17T02:29:07.848Z,9.13
2016-11-17T02:30:16.477Z,9.1
2016-11-17T02:31:25.114Z,9.18
2016-11-17T02:32:33.735Z,9.14
2016-11-17T02:33:42.356Z,9.21
2016-11-17T02:34:50.973Z,9.11
2016-11-17T02:35:59.615Z,9.15
2016-11-17T02:37:08.276Z,9.18
2016-11-17T02:38:16.912Z,9.18
2016-11-17T02:39:25.553Z,9.18
2016-11-17T02:40:34.206Z,9.2
2016-11-17T02:41:42.845Z,9.14
2016-11-17T02:42:51.499Z,9.01
2016-11-17T02:44:00.123Z,8.95
2016-11-17T02:45:08.737Z,8.95
2016-11-17T02:46:17.359Z,8.91
2016-11-17T02:47:25.959Z,9.01
2016-11-17T02:48:34.562Z,8.91
2016-11-17T02:49:43.205Z,8.99
2016-11-17T02:50:51.826Z,9.14
2016-11-17T02:52:00.459Z,9.04
2016-11-17T02:53:09.088Z,9.13
2016-11-17T02:54:17.734Z,9.11
2016-11-17T02:55:26.352Z,9.14
2016-11-17T02:56:34.954Z,9.18
2016-11-17T02:57:43.626Z,9.01
2016-11-17T02:58:52.268Z,9.13
2016-11-17T03:00:00.881Z,9.01
2016-11-17T03:01:09.533Z,8.96
2016-11-17T03:02:18.162Z,9.17
2016-11-17T03:03:26.796Z,9.15
2016-11-17T03:04:35.445Z,9.17
2016-11-17T03:05:44.076Z,9.23
2016-11-17T03:06:52.720Z,9.26
2016-11-17T03:08:01.358Z,9.2
2016-11-17T03:09:09.982Z,9.24
2016-11-17T03:10:18.628Z,9.15
2016-11-17T03:11:27.256Z,9.21
2016-11-17T03:12:35.867Z,9.2
2016-11-17T03:13:44.497Z,9.24
2016-11-17T03:14:53.129Z,9.2
2016-11-17T03:16:01.780Z,9.28
2016-11-17T03:17:10.409Z,9.2
2016-11-17T03:18:19.054Z,9.29
2016-11-17T03:19:27.688Z,9.26
2016-11-17T03:20:36.309Z,9.17
2016-11-17T03:21:44.944Z,9.29
2016-11-17T03:22:53.583Z,9.32
2016-11-17T03:24:02.252Z,9.31
2016-11-17T03:25:10.898Z,9.28
2016-11-17T03:26:19.544Z,9.32
2016-11-17T03:27:28.152Z,9.35
2016-11-17T03:28:36.791Z,9.29
2016-11-17T03:29:45.413Z,9.32
2016-11-17T03:30:54.034Z,9.33
2016-11-17T03:32:02.971Z,9.42
2016-11-17T03:33:11.578Z,9.42
2016-11-17T03:34:20.174Z,9.36
2016-11-17T03:35:28.770Z,9.36
2016-11-17T03:36:37.389Z,9.4
2016-11-17T03:37:46.035Z,9.38
2016-11-17T03:38:54.656Z,9.38
2016-11-17T03:40:03.252Z,9.39
2016-11-17T03:41:11.867Z,9.38
2016-11-17T03:42:20.495Z,9.33
2016-11-17T03:43:29.092Z,9.35
2016-11-17T03:44:37.729Z,9.32
2016-11-17T03:45:46.365Z,9.35
2016-11-17T03:46:55.026Z,9.38
2016-11-17T03:48:03.657Z,9.33
2016-11-17T03:49:12.293Z,9.29
2016-11-17T03:50:20.920Z,9.38
2016-11-17T03:51:29.568Z,9.38
2016-11-17T03:52:38.192Z,9.4
2016-11-17T03:53:46.828Z,9.38
2016-11-17T03:54:55.482Z,9.38
2016-11-17T03:56:04.125Z,9.39
2016-11-17T03:57:12.770Z,9.35
2016-11-17T03:58:21.415Z,9.36
2016-11-17T03:59:30.034Z,9.39
2016-11-17T04:00:38.684Z,9.38
2016-11-17T04:01:47.298Z,9.5
2016-11-17T04:02:55.905Z,9.5
2016-11-17T04:04:04.526Z,9.56
2016-11-17T04:05:13.166Z,9.5
2016-11-17T04:06:21.782Z,9.51
2016-11-17T04:07:30.429Z,9.54
2016-11-17T04:08:39.063Z,9.54
2016-11-17T04:09:47.700Z,9.43
2016-11-17T04:10:56.329Z,9.5
2016-11-17T04:12:04.963Z,9.57
2016-11-17T04:13:13.572Z,9.61
2016-11-17T04:14:22.210Z,9.72
2016-11-17T04:15:30.859Z,9.66
2016-11-17T04:16:39.477Z,9.58
2016-11-17T04:17:48.126Z,9.65
2016-11-17T04:18:56.750Z,9.64
2016-11-17T04:20:05.361Z,9.65
2016-11-17T04:21:14.011Z,9.64
2016-11-17T04:22:22.612Z,9.6
2016-11-17T04:23:31.254Z,9.72
2016-11-17T04:24:39.885Z,9.68
2016-11-17T04:25:48.517Z,9.68
2016-11-17T04:26:57.171Z,9.72
2016-11-17T04:28:05.785Z,9.65
2016-11-17T04:29:14.436Z,9.64
2016-11-17T04:30:23.057Z,9.72
2016-11-17T04:31:31.711Z,9.75
2016-11-17T04:32:40.344Z,9.64
2016-11-17T04:33:48.965Z,9.68
2016-11-17T04:34:57.574Z,9.75
2016-11-17T04:36:06.216Z,9.71
2016-11-17T04:37:14.837Z,9.6
2016-11-17T04:38:23.465Z,9.71
2016-11-17T04:39:32.134Z,9.6
2016-11-17T04:40:40.768Z,9.57
2016-11-17T04:41:49.407Z,9.72
2016-11-17T04:42:58.044Z,9.75
2016-11-17T04:44:06.665Z,9.65
2016-11-17T04:45:15.277Z,9.69
2016-11-17T04:46:23.914Z,9.57
2016-11-17T04:47:32.549Z,9.65
2016-11-17T04:48:41.158Z,9.64
2016-11-17T04:49:49.799Z,9.65
2016-11-17T04:50:58.438Z,9.68
2016-11-17T04:52:07.055Z,9.61
2016-11-17T04:53:15.681Z,9.68
2016-11-17T04:54:24.597Z,9.57
2016-11-17T04:55:33.254Z,9.6
2016-11-17T04:56:41.890Z,9.68
2016-11-17T04:57:50.540Z,9.61
2016-11-17T04:58:59.166Z,9.68
2016-11-17T05:00:07.811Z,9.6
2016-11-17T05:01:16.455Z,9.65
2016-11-17T05:02:25.082Z,9.69
2016-11-17T05:03:33.706Z,9.57
2016-11-17T05:04:42.342Z,9.65
2016-11-17T05:05:51.000Z,9.64
2016-11-17T05:06:59.642Z,9.61
2016-11-17T05:08:08.284Z,9.66
2016-11-17T05:09:16.880Z,9.68
2016-11-17T05:10:25.494Z,9.65
2016-11-17T05:11:34.123Z,9.6
2016-11-17T05:12:42.798Z,9.64
2016-11-17T05:13:51.419Z,9.65
2016-11-17T05:15:00.061Z,9.64
2016-11-17T05:16:08.675Z,9.58
2016-11-17T05:17:17.321Z,9.66
2016-11-17T05:18:25.952Z,9.61
2016-11-17T05:19:34.595Z,9.64
2016-11-17T05:20:43.223Z,9.56
2016-11-17T05:21:51.843Z,9.57
2016-11-17T05:23:00.513Z,9.58
2016-11-17T05:24:09.160Z,9.61
2016-11-17T05:25:17.782Z,9.64
2016-11-17T05:26:26.404Z,9.61
2016-11-17T05:27:35.037Z,9.65
2016-11-17T05:28:43.662Z,9.66
2016-11-17T05:29:52.286Z,9.6
2016-11-17T05:31:00.912Z,9.6
2016-11-17T05:32:09.575Z,9.61
2016-11-17T05:33:18.217Z,9.65
2016-11-17T05:34:26.851Z,9.71
2016-11-17T05:35:35.517Z,9.69
2016-11-17T05:36:44.160Z,9.69
2016-11-17T05:37:52.807Z,9.72
2016-11-17T05:39:01.452Z,9.64
2016-11-17T05:40:10.094Z,9.69
2016-11-17T05:41:18.720Z,9.71
2016-11-17T05:42:27.391Z,9.68
2016-11-17T05:43:36.009Z,9.66
2016-11-17T05:44:44.641Z,9.72
2016-11-17T05:45:53.280Z,9.68
2016-11-17T05:47:01.886Z,9.71
2016-11-17T05:48:10.530Z,9.76
2016-11-17T05:49:19.147Z,9.72
2016-11-17T05:50:27.786Z,9.74
2016-11-17T05:51:36.419Z,9.68
2016-11-17T05:52:45.056Z,9.66
2016-11-17T05:53:53.678Z,9.66
2016-11-17T05:55:02.325Z,9.65
2016-11-17T05:56:10.930Z,9.68
2016-11-17T05:57:19.871Z,9.69
2016-11-17T05:58:28.483Z,9.68
2016-11-17T05:59:37.109Z,9.75
2016-11-17T06:00:45.731Z,9.75
2016-11-17T06:01:54.347Z,9.74
2016-11-17T06:03:02.997Z,9.74
2016-11-17T06:04:11.652Z,9.79
2016-11-17T06:05:20.268Z,9.71
2016-11-17T06:06:28.924Z,9.78
2016-11-17T06:07:37.554Z,9.71
2016-11-17T06:08:46.174Z,9.74
2016-11-17T06:09:54.831Z,9.76
2016-11-17T06:11:03.467Z,9.75
2016-11-17T06:12:12.077Z,9.74
2016-11-17T06:13:20.713Z,9.69
2016-11-17T06:14:29.330Z,9.69
2016-11-17T06:15:37.940Z,9.75
2016-11-17T06:16:46.572Z,9.75
2016-11-17T06:17:55.201Z,9.75
2016-11-17T06:19:03.868Z,9.75
2016-11-17T06:20:12.527Z,9.87
2016-11-17T06:21:21.168Z,9.84
2016-11-17T06:22:29.782Z,9.83
2016-11-17T06:23:38.424Z,9.86
2016-11-17T06:24:47.077Z,9.79
2016-11-17T06:25:55.716Z,9.71
2016-11-17T06:27:04.345Z,9.75
2016-11-17T06:28:13.004Z,9.76
2016-11-17T06:29:21.655Z,9.81
2016-11-17T06:30:30.292Z,9.79
2016-11-17T06:31:38.905Z,9.83
2016-11-17T06:32:47.543Z,9.83
2016-11-17T06:33:56.197Z,9.89
2016-11-17T06:35:04.822Z,9.79
2016-11-17T06:36:13.447Z,9.86
2016-11-17T06:37:22.082Z,9.79
2016-11-17T06:38:30.731Z,9.86
2016-11-17T06:39:39.357Z,9.91
2016-11-17T06:40:48.003Z,9.79
2016-11-17T06:41:56.650Z,9.87
2016-11-17T06:43:05.287Z,9.81
2016-11-17T06:44:13.933Z,9.74
2016-11-17T06:45:22.558Z,9.76
2016-11-17T06:46:31.201Z,9.75
2016-11-17T06:47:39.826Z,9.75
2016-11-17T06:48:48.450Z,9.66
2016-11-17T06:49:57.060Z,9.75
2016-11-17T06:51:05.693Z,9.71
2016-11-17T06:52:14.312Z,9.72
2016-11-17T06:53:22.924Z,9.71
2016-11-17T06:54:31.581Z,9.69
2016-11-17T06:55:40.204Z,9.69
2016-11-17T06:56:48.841Z,9.66
2016-11-17T06:57:57.441Z,9.74
2016-11-17T06:59:06.082Z,9.71
2016-11-17T07:00:14.689Z,9.66
2016-11-17T07:01:23.334Z,9.66
2016-11-17T07:02:31.973Z,9.69
2016-11-17T07:03:40.588Z,9.74
2016-11-17T07:04:49.234Z,9.74
2016-11-17T07:05:57.866Z,9.79
2016-11-17T07:07:06.513Z,9.83
2016-11-17T07:08:15.137Z,9.83
2016-11-17T07:09:23.780Z,9.79
2016-11-17T07:10:32.476Z,9.86
2016-11-17T07:11:41.114Z,9.81
2016-11-17T07:12:49.731Z,9.89
2016-11-17T07:13:58.338Z,9.83
2016-11-17T07:15:06.980Z,9.87
2016-11-17T07:16:15.601Z,9.93
2016-11-17T07:17:24.245Z,9.93
2016-11-17T07:18:32.899Z,9.94
2016-11-17T07:19:41.567Z,9.91
2016-11-17T07:20:50.215Z,9.94
2016-11-17T07:21:58.884Z,9.99
2016-11-17T07:23:07.496Z,10.01
2016-11-17T07:24:16.146Z,10.05
2016-11-17T07:25:24.768Z,10.07
2016-11-17T07:26:33.421Z,10.07
2016-11-17T07:27:42.055Z,10.07
2016-11-17T07:28:50.678Z,10.05
2016-11-17T07:29:59.305Z,10.14
2016-11-17T07:31:07.918Z,10.07
2016-11-17T07:32:16.550Z,10.02
2016-11-17T07:33:25.174Z,10.02
2016-11-17T07:34:33.861Z,10.04
2016-11-17T07:35:42.514Z,10.11
2016-11-17T07:36:51.161Z,10.15
2016-11-17T07:37:59.794Z,10.07
2016-11-17T07:39:08.448Z,10.2
2016-11-17T07:40:17.091Z,10.22
2016-11-17T07:41:25.712Z,10.18
2016-11-17T07:42:34.359Z,10.26
2016-11-17T07:43:43.005Z,10.29
2016-11-17T07:44:51.675Z,10.12
2016-11-17T07:46:00.292Z,10.33
2016-11-17T07:47:08.913Z,10.32
2016-11-17T07:48:17.524Z,10.32
2016-11-17T07:49:26.155Z,10.32
2016-11-17T07:50:34.806Z,10.34
2016-11-17T07:51:43.434Z,10.34
2016-11-17T07:52:52.051Z,10.42
2016-11-17T07:54:00.679Z,10.4
2016-11-17T07:55:09.311Z,10.51
2016-11-17T07:56:17.958Z,10.48
2016-11-17T07:57:26.615Z,10.61
2016-11-17T07:58:35.267Z,10.61
2016-11-17T07:59:43.903Z,10.66
2016-11-17T08:00:52.558Z,10.81
2016-11-17T08:02:01.195Z,10.84
2016-11-17T08:03:09.841Z,10.96
2016-11-17T08:04:18.488Z,11.02
2016-11-17T08:05:27.101Z,11.03
2016-11-17T08:06:35.751Z,11.18
2016-11-17T08:07:44.403Z,11.19
2016-11-17T08:08:53.048Z,11.27
2016-11-17T08:10:01.660Z,11.21
2016-11-17T08:11:10.282Z,11.19
2016-11-17T08:12:18.932Z,11.29
2016-11-17T08:13:27.573Z,11.36
2016-11-17T08:14:36.195Z,11.36
2016-11-17T08:15:44.824Z,11.44
2016-11-17T08:16:53.463Z,11.47
2016-11-17T08:18:02.095Z,11.51
2016-11-17T08:19:10.741Z,11.47
2016-11-17T08:20:19.376Z,11.42
2016-11-17T08:21:28.329Z,11.47
2016-11-17T08:22:36.981Z,11.44
2016-11-17T08:23:45.646Z,11.57
2016-11-17T08:24:54.286Z,11.54
2016-11-17T08:26:03.300Z,11.47
2016-11-17T08:27:11.952Z,11.47
2016-11-17T08:28:20.585Z,11.4
2016-11-17T08:29:29.219Z,11.4
2016-11-17T08:30:37.852Z,11.37
2016-11-17T08:31:46.471Z,11.43
2016-11-17T08:32:55.096Z,11.36
2016-11-17T08:34:03.715Z,11.42
2016-11-17T08:35:12.355Z,11.37
2016-11-17T08:36:21.004Z,11.33
2016-11-17T08:37:29.655Z,11.4
2016-11-17T08:38:38.288Z,11.35
2016-11-17T08:39:46.941Z,11.4
2016-11-17T08:40:55.556Z,11.37
2016-11-17T08:42:04.190Z,11.54
2016-11-17T08:43:12.806Z,11.61
2016-11-17T08:44:21.432Z,11.62
2016-11-17T08:45:30.068Z,11.62
2016-11-17T08:46:38.690Z,11.62
2016-11-17T08:47:47.315Z,11.67
2016-11-17T08:48:55.928Z,11.65
2016-11-17T08:50:04.587Z,11.67
2016-11-17T08:51:13.230Z,11.73
2016-11-17T08:52:21.869Z,11.7
2016-11-17T08:53:30.535Z,11.75
2016-11-17T08:54:39.156Z,11.86
2016-11-17T08:55:47.784Z,11.86
2016-11-17T08:56:56.435Z,11.83
2016-11-17T08:58:05.073Z,11.73
2016-11-17T08:59:13.719Z,11.72
2016-11-17T09:00:22.364Z,11.7
2016-11-17T09:01:31.006Z,11.72
2016-11-17T09:02:39.635Z,11.7
2016-11-17T09:03:48.256Z,11.69
2016-11-17T09:04:56.899Z,11.79
2016-11-17T09:06:05.503Z,11.85
2016-11-17T09:07:14.111Z,11.8
2016-11-17T09:08:22.765Z,11.83
2016-11-17T09:09:31.411Z,11.94
2016-11-17T09:10:40.028Z,11.99
2016-11-17T09:11:48.974Z,11.91
2016-11-17T09:12:57.602Z,11.88
2016-11-17T09:14:06.519Z,11.99
2016-11-17T09:15:15.163Z,11.95
2016-11-17T09:16:23.788Z,11.9
2016-11-17T09:17:32.408Z,11.94
2016-11-17T09:18:41.033Z,11.85
2016-11-17T09:19:49.668Z,11.82
2016-11-17T09:20:58.318Z,11.73
2016-11-17T09:22:06.964Z,11.79
2016-11-17T09:23:15.581Z,11.73
2016-11-17T09:24:24.231Z,11.72
2016-11-17T09:25:32.880Z,11.65
2016-11-17T09:26:41.502Z,11.75
2016-11-17T09:27:50.101Z,11.61
2016-11-17T09:28:58.728Z,11.75
2016-11-17T09:30:07.365Z,11.67
2016-11-17T09:31:15.979Z,11.73
2016-11-17T09:32:24.625Z,11.76
2016-11-17T09:33:33.271Z,11.72
2016-11-17T09:34:41.931Z,11.7
2016-11-17T09:35:50.566Z,11.69
2016-11-17T09:36:59.189Z,11.73
2016-11-17T09:38:08.168Z,11.67
2016-11-17T09:39:16.810Z,11.67
2016-11-17T09:40:25.447Z,11.62
2016-11-17T09:41:34.098Z,11.65
2016-11-17T09:42:42.752Z,11.65
2016-11-17T09:43:51.368Z,11.61
2016-11-17T09:44:59.990Z,11.62
2016-11-17T09:46:08.665Z,11.65
2016-11-17T09:47:17.303Z,11.46
2016-11-17T09:48:25.957Z,11.4
2016-11-17T09:49:34.579Z,11.36
2016-11-17T09:50:43.220Z,11.29
2016-11-17T09:51:51.838Z,11.37
2016-11-17T09:53:00.485Z,11.24
2016-11-17T09:54:09.734Z,11.25
2016-11-17T09:55:18.655Z,11.24
2016-11-17T09:56:27.275Z,11.24
2016-11-17T09:57:35.905Z,11.24
2016-11-17T09:58:44.540Z,11.21
2016-11-17T09:59:53.157Z,11.19
2016-11-17T10:01:01.768Z,11.28
2016-11-17T10:02:10.438Z,11.18
2016-11-17T10:03:19.078Z,11.18
2016-11-17T10:04:27.691Z,11.11
2016-11-17T10:05:36.351Z,11.19
2016-11-17T10:06:44.988Z,11.15
2016-11-17T10:07:53.635Z,11.19
2016-11-17T10:09:02.280Z,11.11
2016-11-17T10:10:10.905Z,11.18
2016-11-17T10:11:19.522Z,11.21
2016-11-17T10:12:28.141Z,11.21
2016-11-17T10:13:36.749Z,11.25
2016-11-17T10:14:45.682Z,11.14
2016-11-17T10:15:54.333Z,11.24
2016-11-17T10:17:02.964Z,11.19
2016-11-17T10:18:11.600Z,11.18
2016-11-17T10:19:20.225Z,11.32
2016-11-17T10:20:28.849Z,11.21
2016-11-17T10:21:37.492Z,11.24
2016-11-17T10:22:46.105Z,11.27
2016-11-17T10:23:54.738Z,11.33
2016-11-17T10:25:03.372Z,11.32
2016-11-17T10:26:12.023Z,11.32
2016-11-17T10:27:20.672Z,11.36
2016-11-17T10:28:29.316Z,11.43
2016-11-17T10:29:37.947Z,11.39
2016-11-17T10:30:46.590Z,11.46
2016-11-17T10:31:55.232Z,11.4
2016-11-17T10:33:03.853Z,11.43
2016-11-17T10:34:12.471Z,11.43
2016-11-17T10:35:21.667Z,11.4
2016-11-17T10:36:30.313Z,11.4
2016-11-17T10:37:38.937Z,11.24
2016-11-17T10:38:47.565Z,11.18
2016-11-17T10:39:56.203Z,11.14
2016-11-17T10:41:04.880Z,11.15
2016-11-17T10:42:13.529Z,11.18
2016-11-17T10:43:22.165Z,11.18
2016-11-17T10:44:30.815Z,11.27
2016-11-17T10:45:39.472Z,11.25
2016-11-17T10:46:48.424Z,11.22
2016-11-17T10:47:57.049Z,11.18
2016-11-17T10:49:05.996Z,11.19
2016-11-17T10:50:14.667Z,11.24
2016-11-17T10:51:23.313Z,11.17
2016-11-17T10:52:31.935Z,11.33
2016-11-17T10:53:40.551Z,11.4
2016-11-17T10:54:49.202Z,11.4
2016-11-17T10:55:57.823Z,11.36
2016-11-17T10:57:06.473Z,11.18
2016-11-17T10:58:15.093Z,11.19
2016-11-17T10:59:23.721Z,11.32
2016-11-17T11:00:32.382Z,11.35
2016-11-17T11:01:41.075Z,11.28
2016-11-17T11:02:49.703Z,11.32
2016-11-17T11:03:58.324Z,11.27
2016-11-17T11:05:07.264Z,11.18
2016-11-17T11:06:15.888Z,11.17
2016-11-17T11:07:24.531Z,11.24
2016-11-17T11:08:33.156Z,11.24
2016-11-17T11:09:41.802Z,11.32
2016-11-17T11:10:50.427Z,11.29
2016-11-17T11:11:59.052Z,11.32
2016-11-17T11:13:07.998Z,11.39
2016-11-17T11:14:16.633Z,11.35
2016-11-17T11:15:25.278Z,11.27
2016-11-17T11:16:33.912Z,11.39
2016-11-17T11:17:42.553Z,11.47
2016-11-17T11:18:51.179Z,11.42
2016-11-17T11:20:00.113Z,11.49
2016-11-17T11:21:08.759Z,11.51
2016-11-17T11:22:17.369Z,11.55
2016-11-17T11:23:26.006Z,11.64
2016-11-17T11:24:34.641Z,11.73
2016-11-17T11:25:43.278Z,11.82
2016-11-17T11:26:51.922Z,11.88
2016-11-17T11:28:00.565Z,11.83
2016-11-17T11:29:09.220Z,11.88
2016-11-17T11:30:17.884Z,11.91
2016-11-17T11:31:26.511Z,11.82
2016-11-17T11:32:35.145Z,11.73
2016-11-17T11:33:43.779Z,11.75
2016-11-17T11:34:52.417Z,11.78
2016-11-17T11:36:01.024Z,11.79
2016-11-17T11:37:09.688Z,12.01
2016-11-17T11:38:18.312Z,12.1
2016-11-17T11:39:27.235Z,12.2
2016-11-17T11:40:35.873Z,12.2
2016-11-17T11:41:44.502Z,12.39
2016-11-17T11:42:53.140Z,12.5
2016-11-17T11:44:01.770Z,12.5
2016-11-17T11:45:10.415Z,12.6
2016-11-17T11:46:19.050Z,12.47
2016-11-17T11:47:27.678Z,12.52
2016-11-17T11:48:36.296Z,12.52
2016-11-17T11:49:44.939Z,12.34
2016-11-17T11:50:53.589Z,12.31
2016-11-17T11:52:02.269Z,12.35
2016-11-17T11:53:10.906Z,12.37
2016-11-17T11:54:19.530Z,12.31
2016-11-17T11:55:28.163Z,12.38
2016-11-17T11:56:36.815Z,12.52
2016-11-17T11:57:45.441Z,12.68
2016-11-17T11:58:54.088Z,12.92
2016-11-17T12:00:02.708Z,12.92
2016-11-17T12:01:11.355Z,12.97
2016-11-17T12:02:19.981Z,12.85
2016-11-17T12:03:28.592Z,12.79
2016-11-17T12:04:37.218Z,12.74
2016-11-17T12:05:45.867Z,12.7
2016-11-17T12:06:54.468Z,12.7
2016-11-17T12:08:03.107Z,12.83
2016-11-17T12:09:11.754Z,13.01
2016-11-17T12:10:20.374Z,13.05
2016-11-17T12:11:28.995Z,13.29
2016-11-17T12:12:37.612Z,13.38
2016-11-17T12:13:46.242Z,13.39
2016-11-17T12:14:54.880Z,13.46
2016-11-17T12:16:03.813Z,13.48
2016-11-17T12:17:12.459Z,13.45
2016-11-17T12:18:21.105Z,13.14
2016-11-17T12:19:29.744Z,13.04
2016-11-17T12:20:38.394Z,12.87
2016-11-17T12:21:46.996Z,12.86
2016-11-17T12:22:55.632Z,12.85
2016-11-17T12:24:04.273Z,12.92
2016-11-17T12:25:12.902Z,12.89
2016-11-17T12:26:21.516Z,12.95
2016-11-17T12:27:30.142Z,12.95
2016-11-17T12:28:38.767Z,12.87
2016-11-17T12:29:47.384Z,12.92
2016-11-17T12:30:56.033Z,12.89
2016-11-17T12:32:04.661Z,12.85
2016-11-17T12:33:13.293Z,12.86
2016-11-17T12:34:21.930Z,12.83
2016-11-17T12:35:30.560Z,12.79
2016-11-17T12:36:39.181Z,12.54
2016-11-17T12:37:47.827Z,12.52
2016-11-17T12:38:56.478Z,12.39
2016-11-17T12:40:05.106Z,12.23
2016-11-17T12:41:13.729Z,12.2
2016-11-17T12:42:22.337Z,12.17
2016-11-17T12:43:30.966Z,12.17
2016-11-17T12:44:39.581Z,12.13
2016-11-17T12:45:48.812Z,12.2
2016-11-17T12:46:57.456Z,12.19
2016-11-17T12:48:06.097Z,12.27
2016-11-17T12:49:14.697Z,12.23
2016-11-17T12:50:23.318Z,12.37
2016-11-17T12:51:31.932Z,12.39
2016-11-17T12:52:40.542Z,12.42
2016-11-17T12:53:49.186Z,12.39
2016-11-17T12:54:57.831Z,12.49
2016-11-17T12:56:06.441Z,12.62
2016-11-17T12:57:15.128Z,12.71
2016-11-17T12:58:23.763Z,12.9
2016-11-17T12:59:32.392Z,13.08
2016-11-17T13:00:41.038Z,13.14
2016-11-17T13:01:49.676Z,13.08
2016-11-17T13:02:58.307Z,13.12
2016-11-17T13:04:06.951Z,13.14
2016-11-17T13:05:15.596Z,12.96
2016-11-17T13:06:24.239Z,12.83
2016-11-17T13:07:32.877Z,12.7
2016-11-17T13:08:41.508Z,12.57
2016-11-17T13:09:50.435Z,12.53
2016-11-17T13:10:59.070Z,12.59
2016-11-17T13:12:07.712Z,12.59
2016-11-17T13:13:16.321Z,12.6
2016-11-17T13:14:24.943Z,12.62
2016-11-17T13:15:33.607Z,12.78
2016-11-17T13:16:42.226Z,12.62
2016-11-17T13:17:50.850Z,12.74
2016-11-17T13:18:59.774Z,12.71
2016-11-17T13:20:08.389Z,12.59
2016-11-17T13:21:17.019Z,12.62
2016-11-17T13:22:25.665Z,12.62
2016-11-17T13:23:34.310Z,12.6
2016-11-17T13:24:42.931Z,12.52
2016-11-17T13:25:51.573Z,12.53
2016-11-17T13:27:00.196Z,12.47
2016-11-17T13:28:08.845Z,12.38
2016-11-17T13:29:17.491Z,12.31
2016-11-17T13:30:26.115Z,12.41
2016-11-17T13:31:34.735Z,12.39
2016-11-17T13:32:43.385Z,12.49
2016-11-17T13:33:52.014Z,12.37
2016-11-17T13:35:00.634Z,12.37
2016-11-17T13:36:09.264Z,12.39
2016-11-17T13:37:17.861Z,12.45
2016-11-17T13:38:26.531Z,12.38
2016-11-17T13:39:35.149Z,12.38
2016-11-17T13:40:43.794Z,12.41
2016-11-17T13:41:52.424Z,12.35
2016-11-17T13:43:01.066Z,12.35
2016-11-17T13:44:09.758Z,12.34
2016-11-17T13:45:18.390Z,12.28
2016-11-17T13:46:27.007Z,12.2
2016-11-17T13:47:35.646Z,12.17
2016-11-17T13:48:44.300Z,12.2
2016-11-17T13:49:53.269Z,12.23
2016-11-17T13:51:01.894Z,12.28
2016-11-17T13:52:10.527Z,12.21
2016-11-17T13:53:19.184Z,12.32
2016-11-17T13:54:27.818Z,12.37
2016-11-17T13:55:36.452Z,12.28
2016-11-17T13:56:45.073Z,12.23
2016-11-17T13:57:53.722Z,12.21
2016-11-17T13:59:02.378Z,12.24
2016-11-17T14:00:11.003Z,12.24
2016-11-17T14:01:19.645Z,12.2
2016-11-17T14:02:28.271Z,12.23
2016-11-17T14:03:36.888Z,12.2
2016-11-17T14:04:45.538Z,12.16
2016-11-17T14:05:54.192Z,12.1
2016-11-17T14:07:02.839Z,12.19
2016-11-17T14:08:11.472Z,12.12
2016-11-17T14:09:20.124Z,12.16
2016-11-17T14:10:28.772Z,12.2
2016-11-17T14:11:37.740Z,12.19
2016-11-17T14:12:46.371Z,12.19
2016-11-17T14:13:55.015Z,12.19
2016-11-17T14:15:04.003Z,12.12
2016-11-17T14:16:12.628Z,12.17
2016-11-17T14:17:21.242Z,12.09
2016-11-17T14:18:29.869Z,12.16
2016-11-17T14:19:38.482Z,12.09
2016-11-17T14:20:47.109Z,12.07
2016-11-17T14:21:55.742Z,12.16
2016-11-17T14:23:04.360Z,12.09
2016-11-17T14:24:12.997Z,12.02
2016-11-17T14:25:21.638Z,12.04
2016-11-17T14:26:30.289Z,12.12
2016-11-17T14:27:38.906Z,12.02
2016-11-17T14:28:47.538Z,12.07
2016-11-17T14:29:56.177Z,11.99
2016-11-17T14:31:04.798Z,11.96
2016-11-17T14:32:13.719Z,11.99
2016-11-17T14:33:22.397Z,11.95
2016-11-17T14:34:31.044Z,11.96
2016-11-17T14:35:39.678Z,11.94
2016-11-17T14:36:48.332Z,11.86
2016-11-17T14:37:56.957Z,11.83
2016-11-17T14:39:05.592Z,11.9
2016-11-17T14:40:14.223Z,11.8
2016-11-17T14:41:22.834Z,11.86
2016-11-17T14:42:31.455Z,11.88
2016-11-17T14:43:40.076Z,11.76
2016-11-17T14:44:48.727Z,11.79
2016-11-17T14:45:57.368Z,11.75
2016-11-17T14:47:05.989Z,11.75
2016-11-17T14:48:14.635Z,11.72
2016-11-17T14:49:23.294Z,11.78
2016-11-17T14:50:31.928Z,11.75
2016-11-17T14:51:40.563Z,11.75
2016-11-17T14:52:49.200Z,11.79
2016-11-17T14:53:57.823Z,11.7
2016-11-17T14:55:06.462Z,11.69
2016-11-17T14:56:15.083Z,11.78
2016-11-17T14:57:23.707Z,11.72
2016-11-17T14:58:32.309Z,11.62
2016-11-17T14:59:40.933Z,11.61
2016-11-17T15:00:49.908Z,11.67